Time;durP1;ratioP1;P1;durP2;ratioP2;P2;SDS_P1;SDS_P2;PMS_P1;PMS_P2;Temp;Humidity;BMP_temperature;BMP_pressure;BME280_temperature;BME280_humidity;BME280_pressure;Samples;Min_cycle;Max_cycle;Signal;HPM_P1;HPM_P2
2021/04/02 00:02:25;;;;;;;27.15;16.23;;;231.20;2252.80;;;;;;5011106;28;20022;-68
2021/04/02 00:04:51;;;;;;;25.17;15.80;;;231.30;2252.80;;;;;;5013124;28;20026;-68
2021/04/02 00:07:17;;;;;;;27.55;16.08;;;256.00;2252.80;;;;;;5015272;28;20040;-68
2021/04/02 00:09:42;;;;;;;26.73;15.80;;;256.00;2252.80;;;;;;5014490;28;20035;-69
2021/04/02 00:12:09;;;;;;;30.08;15.70;;;256.00;2252.80;;;;;;5015011;28;20060;-68
2021/04/02 00:14:35;;;;;;;27.17;16.08;;;256.10;2252.80;;;;;;5014609;28;20499;-68
2021/04/02 00:17:00;;;;;;;27.45;17.33;;;256.10;2252.80;;;;;;5014706;28;20018;-71
2021/04/02 00:19:26;;;;;;;37.92;18.20;;;256.00;2252.80;;;;;;5014406;28;20018;-68
2021/04/02 00:21:52;;;;;;;48.63;21.48;;;231.30;2252.80;;;;;;5014854;28;20022;-67
2021/04/02 00:24:17;;;;;;;45.72;20.00;;;231.30;2252.80;;;;;;5014968;28;20038;-68
2021/04/02 00:26:43;;;;;;;51.00;21.17;;;231.20;2252.80;;;;;;5014639;28;20045;-68
2021/04/02 00:29:11;;;;;;;42.58;18.27;;;231.10;2252.80;;;;;;5014405;28;20030;-69
2021/04/02 00:31:37;;;;;;;33.13;17.33;;;231.10;2252.80;;;;;;5014717;28;20022;-68
2021/04/02 00:34:04;;;;;;;36.28;18.25;;;231.10;2252.80;;;;;;5014640;28;20025;-69
2021/04/02 00:36:30;;;;;;;27.83;15.70;;;231.10;2252.80;;;;;;5014407;28;20061;-68
2021/04/02 00:38:56;;;;;;;25.70;14.57;;;231.10;2252.80;;;;;;5014302;28;20074;-68
2021/04/02 00:41:23;;;;;;;19.23;11.85;;;231.10;2252.80;;;;;;5014640;28;20032;-68
2021/04/02 00:43:50;;;;;;;18.38;11.35;;;231.20;2252.80;;;;;;5000868;28;20030;-67
2021/04/02 00:46:19;;;;;;;19.30;12.40;;;231.30;2252.80;;;;;;5014616;28;20145;-67
2021/04/02 00:48:46;;;;;;;28.65;15.27;;;231.20;2252.80;;;;;;5013159;28;20030;-68
2021/04/02 00:51:19;;;;;;;31.42;16.95;;;231.20;2252.80;;;;;;5014475;28;20033;-68
2021/04/02 00:53:45;;;;;;;27.40;16.45;;;231.00;2252.80;;;;;;5014131;28;20032;-69
2021/04/02 00:56:13;;;;;;;27.13;16.60;;;230.90;2252.80;;;;;;5013144;28;20124;-68
2021/04/02 00:58:40;;;;;;;29.88;16.77;;;230.80;2252.80;;;;;;5013661;28;20037;-67
2021/04/02 01:01:07;;;;;;;33.53;18.40;;;230.70;2252.80;;;;;;5014219;28;20033;-68
2021/04/02 01:03:34;;;;;;;38.67;19.33;;;230.70;2252.80;;;;;;5014042;28;20033;-68
2021/04/02 01:06:04;;;;;;;36.65;19.00;;;230.60;2252.80;;;;;;5014271;28;20026;-68
2021/04/02 01:08:33;;;;;;;39.85;20.08;;;230.60;2252.80;;;;;;5013808;28;20041;-69
2021/04/02 01:11:02;;;;;;;44.95;22.90;;;230.60;2252.80;;;;;;5013916;28;20049;-69
2021/04/02 01:13:37;;;;;;;45.92;22.60;;;230.50;2252.80;;;;;;5013817;28;20065;-69
2021/04/02 01:16:09;;;;;;;39.85;20.70;;;230.50;2252.80;;;;;;5013611;28;20025;-68
2021/04/02 01:18:39;;;;;;;36.05;18.58;;;230.60;2252.80;;;;;;5013368;28;20025;-68
2021/04/02 01:21:19;;;;;;;34.85;19.30;;;230.60;2252.80;;;;;;5013591;28;20147;-69
2021/04/02 01:24:07;;;;;;;31.08;17.75;;;230.70;2252.80;;;;;;5013320;28;20026;-75
2021/04/02 01:26:33;;;;;;;27.75;17.08;;;230.70;2252.80;;;;;;5013652;28;20105;-72
2021/04/02 01:29:08;;;;;;;24.20;14.63;;;230.80;2252.80;;;;;;5013305;28;20156;-73
2021/04/02 01:31:35;;;;;;;26.00;14.52;;;231.00;2252.80;;;;;;5013387;28;20509;-71
2021/04/02 01:34:02;;;;;;;24.83;14.10;;;231.00;2252.80;;;;;;5013531;28;20029;-68
2021/04/02 01:36:30;;;;;;;24.88;13.90;;;231.20;2252.80;;;;;;5013754;28;20387;-70
2021/04/02 01:38:56;;;;;;;22.45;13.40;;;231.30;2252.80;;;;;;5013025;28;20410;-69
2021/04/02 01:41:23;;;;;;;18.63;12.38;;;256.00;2252.80;;;;;;5013405;28;20030;-69
2021/04/02 01:43:53;;;;;;;20.73;12.45;;;256.10;2252.80;;;;;;5013017;28;20029;-70
2021/04/02 01:46:20;;;;;;;20.50;12.13;;;256.20;2252.80;;;;;;5013449;28;20509;-68
2021/04/02 01:48:49;;;;;;;21.08;12.32;;;256.20;2252.80;;;;;;5013073;28;20030;-68
2021/04/02 01:51:16;;;;;;;17.95;10.73;;;256.20;2252.80;;;;;;5013196;28;20030;-67
2021/04/02 01:53:48;;;;;;;22.10;11.50;;;256.20;2252.80;;;;;;5012841;28;20033;-68
2021/04/02 01:56:14;;;;;;;22.02;12.70;;;256.20;2252.80;;;;;;5011988;28;20018;-66
2021/04/02 01:58:43;;;;;;;34.20;15.55;;;256.20;2227.20;;;;;;5012396;28;20026;-69
2021/04/02 02:01:11;;;;;;;36.85;16.58;;;256.20;2227.20;;;;;;5013596;28;20026;-67
2021/04/02 02:03:38;;;;;;;28.08;14.55;;;256.20;2227.20;;;;;;5013307;28;20107;-68
2021/04/02 02:06:06;;;;;;;21.70;11.88;;;256.20;2227.20;;;;;;5012797;28;20037;-68
2021/04/02 02:08:34;;;;;;;28.00;13.23;;;256.20;2227.20;;;;;;5004184;28;20030;-68
2021/04/02 02:11:12;;;;;;;40.30;16.77;;;256.20;2227.20;;;;;;5012659;28;20116;-68
2021/04/02 02:13:41;;;;;;;23.45;12.60;;;256.20;2227.20;;;;;;5012738;28;20022;-68
2021/04/02 02:16:08;;;;;;;23.42;13.05;;;256.20;2227.20;;;;;;5012618;28;20109;-68
2021/04/02 02:18:36;;;;;;;36.40;16.75;;;256.20;2227.20;;;;;;5012306;28;20076;-68
2021/04/02 02:21:07;;;;;;;41.92;17.65;;;256.20;2227.20;;;;;;5012477;28;20102;-68
2021/04/02 02:23:33;;;;;;;29.70;15.88;;;256.20;2252.80;;;;;;5012483;28;20478;-69
2021/04/02 02:25:59;;;;;;;30.10;15.02;;;256.20;2252.80;;;;;;5012288;28;20073;-68
2021/04/02 02:28:25;;;;;;;25.40;14.27;;;256.20;2227.20;;;;;;5011785;28;20092;-68
2021/04/02 02:30:51;;;;;;;28.38;14.77;;;256.10;2252.80;;;;;;5012126;28;20030;-68
2021/04/02 02:33:17;;;;;;;25.27;13.95;;;256.10;2252.80;;;;;;5012335;28;20083;-73
2021/04/02 02:35:42;;;;;;;18.73;11.60;;;256.10;2227.20;;;;;;5012163;28;20022;-71
2021/04/02 02:38:09;;;;;;;21.23;12.77;;;256.10;2227.20;;;;;;5012294;28;20041;-68
2021/04/02 02:40:37;;;;;;;16.10;10.02;;;256.00;2252.80;;;;;;5012067;28;20060;-68
2021/04/02 02:43:05;;;;;;;15.38;9.75;;;256.00;2252.80;;;;;;5012246;28;20025;-68
2021/04/02 02:45:32;;;;;;;16.63;9.70;;;231.30;2252.80;;;;;;5012187;28;20029;-69
2021/04/02 02:47:58;;;;;;;18.48;11.30;;;231.30;2252.80;;;;;;5012428;28;20514;-68
2021/04/02 02:50:31;;;;;;;19.38;11.65;;;231.30;2252.80;;;;;;5012046;28;20037;-68
2021/04/02 02:52:58;;;;;;;18.88;11.07;;;231.30;2252.80;;;;;;5012261;28;20026;-69
2021/04/02 02:55:26;;;;;;;16.45;10.52;;;231.20;2252.80;;;;;;5010620;28;20022;-68
2021/04/02 02:57:55;;;;;;;16.20;10.85;;;231.20;2252.80;;;;;;5011905;28;20018;-67
2021/04/02 03:00:25;;;;;;;14.77;9.93;;;231.20;2252.80;;;;;;5011532;28;20021;-71
2021/04/02 03:02:53;;;;;;;17.08;10.63;;;231.20;2252.80;;;;;;5011974;28;20018;-68
2021/04/02 03:05:24;;;;;;;21.08;11.60;;;231.30;2252.80;;;;;;5011744;28;20399;-68
2021/04/02 03:07:55;;;;;;;21.40;13.25;;;231.30;2227.20;;;;;;5011813;28;20054;-68
2021/04/02 03:10:22;;;;;;;25.23;13.57;;;256.10;2227.20;;;;;;5011331;28;20028;-69
2021/04/02 03:12:49;;;;;;;23.10;13.45;;;256.10;2201.60;;;;;;5011884;28;20054;-69
2021/04/02 03:15:17;;;;;;;25.55;13.80;;;256.10;2201.60;;;;;;5012032;28;20034;-69
2021/04/02 03:17:43;;;;;;;24.55;13.18;;;256.20;2201.60;;;;;;5011460;28;20364;-67
2021/04/02 03:20:11;;;;;;;18.75;11.20;;;256.20;2176.00;;;;;;5010120;28;20018;-69
2021/04/02 03:22:37;;;;;;;15.52;9.65;;;256.20;2201.60;;;;;;5011907;28;20021;-67
2021/04/02 03:25:10;;;;;;;16.48;9.63;;;256.10;2201.60;;;;;;5011485;28;20037;-73
2021/04/02 03:27:39;;;;;;;20.75;11.00;;;256.10;2201.60;;;;;;5011412;28;20471;-73
2021/04/02 03:30:10;;;;;;;19.02;11.05;;;256.00;2201.60;;;;;;5011083;28;20026;-69
2021/04/02 03:32:39;;;;;;;18.02;10.90;;;256.00;2201.60;;;;;;5011677;28;20041;-67
2021/04/02 03:35:07;;;;;;;22.95;12.40;;;256.00;2201.60;;;;;;5011578;28;20061;-67
2021/04/02 03:37:37;;;;;;;19.83;11.02;;;231.30;2201.60;;;;;;5011425;28;20018;-72
2021/04/02 03:40:13;;;;;;;21.50;11.77;;;231.30;2201.60;;;;;;5011101;28;20368;-67
2021/04/02 03:42:40;;;;;;;30.55;13.95;;;231.20;2227.20;;;;;;5011334;28;20530;-69
2021/04/02 03:45:12;;;;;;;22.58;11.73;;;231.20;2227.20;;;;;;5011504;28;20095;-67
2021/04/02 03:47:39;;;;;;;20.13;11.25;;;231.10;2252.80;;;;;;5011610;28;20113;-69
2021/04/02 03:50:08;;;;;;;20.40;11.88;;;231.10;2252.80;;;;;;5011086;28;20375;-72
2021/04/02 03:52:45;;;;;;;22.75;12.50;;;231.10;2252.80;;;;;;5010859;28;20026;-70
2021/04/02 03:55:18;;;;;;;23.40;11.65;;;231.10;2252.80;;;;;;5007415;28;20033;-67
2021/04/02 03:57:45;;;;;;;20.42;11.95;;;231.00;2252.80;;;;;;5011492;28;20033;-67
2021/04/02 04:00:21;;;;;;;18.25;10.82;;;231.00;2252.80;;;;;;5010956;28;20022;-68
2021/04/02 04:02:49;;;;;;;22.92;12.63;;;230.90;2252.80;;;;;;5011242;28;20032;-67
2021/04/02 04:05:16;;;;;;;29.85;13.90;;;230.80;2252.80;;;;;;5011128;28;20034;-67
2021/04/02 04:07:45;;;;;;;25.33;12.82;;;230.80;2252.80;;;;;;5010995;28;20032;-67
2021/04/02 04:10:16;;;;;;;19.13;11.00;;;230.90;2252.80;;;;;;5010877;28;20434;-67
2021/04/02 04:12:47;;;;;;;22.65;12.00;;;230.80;2252.80;;;;;;5010846;28;20104;-67
2021/04/02 04:15:13;;;;;;;18.95;11.07;;;230.80;2252.80;;;;;;5011377;28;20444;-68
2021/04/02 04:17:41;;;;;;;18.92;10.48;;;230.80;2252.80;;;;;;5011044;28;20434;-68
2021/04/02 04:20:10;;;;;;;17.95;10.40;;;230.70;2252.80;;;;;;5011205;28;20467;-68
2021/04/02 04:22:39;;;;;;;18.27;10.85;;;230.70;2252.80;;;;;;5010767;28;20014;-68
2021/04/02 04:25:07;;;;;;;16.67;10.13;;;230.70;2252.80;;;;;;5011039;28;20104;-68
2021/04/02 04:27:34;;;;;;;17.60;10.60;;;230.70;2252.80;;;;;;5010775;28;20052;-68
2021/04/02 04:30:02;;;;;;;16.08;10.73;;;230.70;2252.80;;;;;;5010729;28;20018;-70
2021/04/02 04:32:28;;;;;;;20.17;12.20;;;230.70;2252.80;;;;;;5010931;28;20084;-69
2021/04/02 04:34:55;;;;;;;20.05;11.23;;;230.80;2252.80;;;;;;5010928;28;20026;-68
2021/04/02 04:37:23;;;;;;;17.63;11.07;;;230.90;2252.80;;;;;;5010924;28;20050;-67
2021/04/02 04:39:50;;;;;;;20.05;11.30;;;231.00;2252.80;;;;;;5010363;28;20056;-69
2021/04/02 04:42:19;;;;;;;21.33;12.38;;;256.00;2227.20;;;;;;5010964;28;20037;-67
2021/04/02 04:44:49;;;;;;;21.48;12.75;;;256.30;2176.00;;;;;;5010723;28;20105;-68
2021/04/02 04:47:15;;;;;;;;;;;256.60;2124.80;;;;;;5011581;28;20034;-67
2021/04/02 04:49:41;;;;;;;20.52;12.50;;;256.90;2073.60;;;;;;5010490;28;20358;-67
2021/04/02 04:52:08;;;;;;;21.45;13.57;;;281.80;2073.60;;;;;;5014579;28;20034;-67
2021/04/02 04:54:34;;;;;;;24.05;14.30;;;282.10;2022.40;;;;;;5014081;28;20029;-69
2021/04/02 04:57:00;;;;;;;21.00;14.02;;;282.30;2022.40;;;;;;5012858;28;20022;-69
2021/04/02 04:59:32;;;;;;;24.02;15.07;;;307.30;1996.80;;;;;;5014026;28;20544;-69
2021/04/02 05:02:00;;;;;;;27.23;16.33;;;307.60;1945.60;;;;;;5014241;28;20033;-69
2021/04/02 05:04:28;;;;;;;23.50;14.15;;;307.80;1945.60;;;;;;5014245;28;20386;-69
2021/04/02 05:07:00;;;;;;;38.95;23.45;;;307.80;1945.60;;;;;;5013970;28;20440;-69
2021/04/02 05:09:28;;;;;;;31.83;18.48;;;308.10;1920.00;;;;;;5014057;28;20383;-70
2021/04/02 05:11:55;;;;;;;20.95;13.70;;;333.20;1920.00;;;;;;5012603;28;20054;-70
2021/04/02 05:14:22;;;;;;;20.38;13.27;;;333.50;1843.20;;;;;;5013894;28;20615;-69
2021/04/02 05:16:49;;;;;;;21.55;13.93;;;333.70;1817.60;;;;;;5014035;28;20053;-69
2021/04/02 05:19:19;;;;;;;23.02;14.73;;;358.60;1792.00;;;;;;5013609;28;20107;-70
2021/04/02 05:21:45;;;;;;;25.17;15.52;;;358.70;1766.40;;;;;;5013991;28;20018;-67
2021/04/02 05:24:12;;;;;;;28.92;18.40;;;358.90;1740.80;;;;;;5013438;28;20502;-69
2021/04/02 05:26:38;;;;;;;24.08;16.27;;;358.80;1740.80;;;;;;5013825;28;20385;-67
2021/04/02 05:29:04;;;;;;;25.17;16.45;;;358.60;1740.80;;;;;;5013244;28;20026;-72
2021/04/02 05:31:30;;;;;;;23.85;16.52;;;358.50;1766.40;;;;;;5013529;28;20033;-71
2021/04/02 05:33:57;;;;;;;22.35;16.85;;;358.90;1740.80;;;;;;5013884;28;20065;-68
2021/04/02 05:36:23;;;;;;;30.38;19.30;;;384.30;1664.00;;;;;;5013190;28;20029;-68
2021/04/02 05:38:49;;;;;;;30.05;20.17;;;409.90;1612.80;;;;;;5013294;28;20049;-68
2021/04/02 05:41:19;;;;;;;27.73;19.38;;;435.30;1536.00;;;;;;5013543;28;20021;-68
2021/04/02 05:43:55;;;;;;;29.05;20.38;;;435.30;1536.00;;;;;;5013547;28;20124;-68
2021/04/02 05:46:24;;;;;;;23.20;16.15;;;435.50;1536.00;;;;;;5013527;28;20108;-68
2021/04/02 05:49:05;;;;;;;40.17;28.00;;;435.60;1536.00;;;;;;5013278;28;20028;-71
2021/04/02 05:51:31;;;;;;;36.08;24.60;;;435.20;1561.60;;;;;;5013350;28;20034;-67
2021/04/02 05:53:58;;;;;;;34.15;24.83;;;435.20;1561.60;;;;;;5013254;28;20058;-68
2021/04/02 05:56:24;;;;;;;22.45;16.40;;;435.60;1536.00;;;;;;5013014;28;20025;-68
2021/04/02 05:58:51;;;;;;;24.33;17.27;;;435.80;1536.00;;;;;;5012680;28;20108;-69
2021/04/02 06:01:17;;;;;;;30.95;22.63;;;435.80;1536.00;;;;;;5012683;28;20026;-67
2021/04/02 06:03:43;;;;;;;25.27;17.63;;;435.70;1536.00;;;;;;5012595;28;20395;-68
2021/04/02 06:06:12;;;;;;;28.20;18.10;;;435.80;1536.00;;;;;;5012916;28;20550;-68
2021/04/02 06:08:44;;;;;;;26.63;16.38;;;435.80;1536.00;;;;;;5012259;28;20037;-69
2021/04/02 06:11:11;;;;;;;23.95;16.17;;;435.60;1561.60;;;;;;5012502;28;20565;-68
2021/04/02 06:13:37;;;;;;;119.60;41.08;;;410.40;1587.20;;;;;;5012666;28;20696;-68
2021/04/02 06:16:03;;;;;;;30.42;21.08;;;409.80;1638.40;;;;;;5012667;28;20032;-68
2021/04/02 06:18:28;;;;;;;35.15;23.27;;;384.60;1715.20;;;;;;5012385;28;20030;-68
2021/04/02 06:20:56;;;;;;;43.13;29.23;;;359.10;1817.60;;;;;;5012585;28;20030;-70
2021/04/02 06:23:26;;;;;;;32.03;21.45;;;358.60;1945.60;;;;;;5012351;28;20030;-71
2021/04/02 06:26:02;;;;;;;29.52;21.65;;;333.60;2022.40;;;;;;5012096;28;20024;-68
2021/04/02 06:28:39;;;;;;;33.55;18.90;;;333.30;2124.80;;;;;;5012285;28;20033;-72
2021/04/02 06:31:16;;;;;;;18.25;13.85;;;333.10;2252.80;;;;;;5012780;28;20046;-69
2021/04/02 06:33:53;;;;;;;20.50;13.30;;;332.90;2304.00;;;;;;5012345;28;20032;-70
2021/04/02 06:36:28;;;;;;;25.25;15.60;;;332.80;2278.40;;;;;;5012612;28;20033;-70
2021/04/02 06:39:00;;;;;;;23.15;14.55;;;332.90;2329.60;;;;;;5012197;28;20026;-70
2021/04/02 06:41:30;;;;;;;27.10;18.30;;;308.10;2304.00;;;;;;5012564;28;20026;-69
2021/04/02 06:44:01;;;;;;;21.80;15.05;;;307.80;2304.00;;;;;;5010997;28;20507;-70
2021/04/02 06:46:29;;;;;;;20.75;14.30;;;307.70;2304.00;;;;;;5012146;28;20037;-69
2021/04/02 06:49:07;;;;;;;21.58;15.38;;;307.80;2304.00;;;;;;5011832;28;20506;-70
2021/04/02 06:51:36;;;;;;;19.92;13.90;;;308.10;2304.00;;;;;;5011927;28;20042;-70
2021/04/02 06:54:03;;;;;;;22.83;15.63;;;332.80;2304.00;;;;;;5012024;28;20030;-69
2021/04/02 06:56:32;;;;;;;23.95;16.20;;;332.90;2329.60;;;;;;5011847;28;20013;-71
2021/04/02 06:59:00;;;;;;;23.35;14.52;;;332.90;2329.60;;;;;;5011774;28;20030;-68
2021/04/02 07:01:32;;;;;;;22.33;15.13;;;332.90;2329.60;;;;;;5011999;28;20022;-68
2021/04/02 07:03:59;;;;;;;29.45;19.80;;;308.10;2304.00;;;;;;5011613;28;20030;-68
2021/04/02 07:06:26;;;;;;;31.63;21.88;;;307.50;2304.00;;;;;;5011845;28;20117;-68
2021/04/02 07:08:52;;;;;;;40.47;27.20;;;307.20;2304.00;;;;;;5011614;28;20106;-70
2021/04/02 07:11:19;;;;;;;32.38;22.23;;;307.20;2304.00;;;;;;5011832;28;20104;-68
2021/04/02 07:13:53;;;;;;;31.73;22.23;;;307.20;2304.00;;;;;;5011325;28;20105;-68
2021/04/02 07:16:20;;;;;;;32.17;20.27;;;282.50;2278.40;;;;;;5011918;28;20022;-69
2021/04/02 07:18:47;;;;;;;35.35;23.13;;;282.30;2278.40;;;;;;5011271;28;20021;-69
2021/04/02 07:21:14;;;;;;;73.40;42.00;;;282.00;2278.40;;;;;;5011658;28;20025;-68
2021/04/02 07:23:40;;;;;;;43.25;27.80;;;281.80;2278.40;;;;;;5011591;28;20066;-71
2021/04/02 07:26:12;;;;;;;52.28;33.20;;;281.80;2278.40;;;;;;5011428;28;20018;-72
2021/04/02 07:28:43;;;;;;;36.60;24.27;;;281.70;2278.40;;;;;;5011570;28;20555;-68
2021/04/02 07:31:10;;;;;;;32.55;22.50;;;281.70;2278.40;;;;;;5011611;28;20387;-69
2021/04/02 07:33:38;;;;;;;33.70;22.45;;;282.00;2278.40;;;;;;5011425;28;20018;-71
2021/04/02 07:36:06;;;;;;;28.13;20.02;;;282.10;2278.40;;;;;;5011271;28;20026;-67
2021/04/02 07:38:36;;;;;;;27.33;19.27;;;282.10;2278.40;;;;;;5011081;28;20450;-68
2021/04/02 07:41:28;;;;;;;23.70;17.02;;;307.40;2304.00;;;;;;5011435;28;20033;-70
2021/04/02 07:43:58;;;;;;;22.75;17.38;;;333.00;2329.60;;;;;;5003448;28;20041;-69
2021/04/02 07:46:27;;;;;;;23.48;16.80;;;308.10;2304.00;;;;;;5011393;28;20030;-68
2021/04/02 07:49:03;;;;;;;23.40;16.45;;;308.10;2304.00;;;;;;5011163;28;20061;-68
2021/04/02 07:51:47;;;;;;;24.33;17.30;;;308.10;2304.00;;;;;;5011020;28;20034;-71
2021/04/02 07:54:22;;;;;;;30.15;20.08;;;333.10;2329.60;;;;;;5002223;28;20150;-69
2021/04/02 07:56:53;;;;;;;28.77;20.13;;;333.20;2329.60;;;;;;4999832;28;20030;-71
2021/04/02 07:59:32;;;;;;;27.77;19.98;;;333.10;2329.60;;;;;;5001834;28;20018;-69
2021/04/02 08:02:01;;;;;;;30.98;21.02;;;332.90;2329.60;;;;;;5008655;28;20017;-69
2021/04/02 08:04:40;;;;;;;29.33;21.00;;;333.10;2329.60;;;;;;5011147;28;20022;-69
2021/04/02 08:07:16;;;;;;;31.88;21.40;;;333.20;2329.60;;;;;;5005567;28;20045;-69
2021/04/02 08:09:49;;;;;;;38.28;22.65;;;333.20;2329.60;;;;;;5001319;28;20061;-68
2021/04/02 08:12:21;;;;;;;34.92;23.25;;;333.40;2329.60;;;;;;4990107;28;20117;-70
2021/04/02 08:14:51;;;;;;;36.25;24.27;;;333.50;2329.60;;;;;;4993696;28;20081;-68
2021/04/02 08:17:24;;;;;;;35.50;23.90;;;333.70;2329.60;;;;;;4995455;28;20105;-69
2021/04/02 08:19:50;;;;;;;36.85;24.02;;;333.50;2329.60;;;;;;4992595;28;20276;-69
2021/04/02 08:22:20;;;;;;;39.78;24.77;;;333.50;2329.60;;;;;;4993429;28;20032;-69
2021/04/02 08:24:48;;;;;;;48.92;31.30;;;333.70;2329.60;;;;;;5004479;28;20042;-69
2021/04/02 08:27:16;;;;;;;44.50;28.23;;;333.60;2329.60;;;;;;5002033;28;20509;-68
2021/04/02 08:29:44;;;;;;;37.25;25.02;;;333.60;2329.60;;;;;;5014292;28;20049;-71
2021/04/02 08:32:13;;;;;;;42.17;26.48;;;333.50;2329.60;;;;;;5014666;28;20022;-70
2021/04/02 08:34:39;;;;;;;39.72;27.15;;;333.50;2329.60;;;;;;5014353;28;20033;-70
2021/04/02 08:37:16;;;;;;;45.08;32.72;;;333.50;2329.60;;;;;;5014770;28;20033;-68
2021/04/02 08:39:42;;;;;;;39.28;28.27;;;333.70;2329.60;;;;;;5013928;28;20128;-70
2021/04/02 08:42:10;;;;;;;43.97;31.35;;;358.50;2329.60;;;;;;5014848;28;20117;-71
2021/04/02 08:44:37;;;;;;;37.65;26.42;;;358.80;2329.60;;;;;;5014561;28;20025;-68
2021/04/02 08:47:10;;;;;;;30.42;20.88;;;359.30;2329.60;;;;;;5014313;28;20065;-73
2021/04/02 08:49:51;;;;;;;29.42;20.00;;;384.20;2329.60;;;;;;5014089;28;20091;-70
2021/04/02 08:52:19;;;;;;;34.55;23.42;;;384.40;2329.60;;;;;;5014161;28;20030;-70
2021/04/02 08:54:47;;;;;;;29.42;20.38;;;384.30;2329.60;;;;;;5014217;28;20029;-70
2021/04/02 08:57:14;;;;;;;29.95;20.67;;;384.40;2329.60;;;;;;5009514;28;20113;-70
2021/04/02 08:59:47;;;;;;;25.20;17.55;;;384.40;2329.60;;;;;;5005270;28;20017;-70
2021/04/02 09:02:16;;;;;;;24.15;16.13;;;384.10;2329.60;;;;;;5013872;28;20026;-70
2021/04/02 09:04:44;;;;;;;21.63;16.00;;;359.30;2329.60;;;;;;5014058;28;20533;-69
2021/04/02 09:07:13;;;;;;;23.05;16.17;;;359.10;2329.60;;;;;;5013544;28;20073;-69
2021/04/02 09:09:44;;;;;;;21.30;15.07;;;359.10;2329.60;;;;;;5013827;28;20064;-69
2021/04/02 09:12:18;;;;;;;23.83;16.88;;;359.00;2329.60;;;;;;5013616;28;20526;-69
2021/04/02 09:14:50;;;;;;;24.90;17.45;;;359.10;2329.60;;;;;;5014021;28;20382;-70
2021/04/02 09:17:22;;;;;;;30.42;18.45;;;359.00;2329.60;;;;;;5013692;28;20033;-69
2021/04/02 09:19:48;;;;;;;26.00;17.17;;;358.90;2329.60;;;;;;5013366;28;20365;-69
2021/04/02 09:22:14;;;;;;;29.30;19.40;;;358.90;2329.60;;;;;;5013489;28;20026;-69
2021/04/02 09:24:42;;;;;;;33.45;22.58;;;358.90;2329.60;;;;;;5013535;28;20025;-69
2021/04/02 09:27:12;;;;;;;29.10;21.15;;;359.10;2329.60;;;;;;5013957;28;20034;-70
2021/04/02 09:29:41;;;;;;;26.92;18.48;;;359.30;2329.60;;;;;;5009431;28;20395;-71
2021/04/02 09:32:07;;;;;;;25.13;18.73;;;384.00;2329.60;;;;;;5013389;28;20037;-70
2021/04/02 09:34:33;;;;;;;26.77;18.15;;;384.10;2329.60;;;;;;5013428;28;20474;-69
2021/04/02 09:37:00;;;;;;;22.63;16.23;;;384.20;2329.60;;;;;;5012059;28;20030;-69
2021/04/02 09:39:28;;;;;;;26.08;19.58;;;384.20;2329.60;;;;;;5012988;28;20022;-71
2021/04/02 09:41:59;;;;;;;29.38;20.80;;;384.40;2329.60;;;;;;5013128;28;20022;-69
2021/04/02 09:44:30;;;;;;;28.20;20.27;;;384.40;2329.60;;;;;;5013280;28;20030;-69
2021/04/02 09:47:07;;;;;;;23.92;17.33;;;384.40;2329.60;;;;;;5013432;28;20096;-69
2021/04/02 09:49:35;;;;;;;39.20;27.98;;;384.10;2329.60;;;;;;5012918;28;20061;-69
2021/04/02 09:52:01;;;;;;;28.02;18.42;;;384.30;2329.60;;;;;;5013260;28;20368;-68
2021/04/02 09:54:30;;;;;;;23.20;16.73;;;384.10;2329.60;;;;;;5012215;28;20038;-69
2021/04/02 09:56:58;;;;;;;23.65;16.60;;;384.10;2329.60;;;;;;5008961;28;20026;-69
2021/04/02 09:59:24;;;;;;;24.77;18.05;;;384.40;2329.60;;;;;;5012614;28;20498;-69
2021/04/02 10:01:50;;;;;;;22.05;16.80;;;384.70;2329.60;;;;;;5011532;28;20030;-72
2021/04/02 10:04:17;;;;;;;22.58;16.15;;;384.70;2329.60;;;;;;5013030;28;20033;-71
2021/04/02 10:06:44;;;;;;;19.50;14.55;;;384.60;2329.60;;;;;;5013086;28;20026;-69
2021/04/02 10:09:10;;;;;;;19.73;13.98;;;384.70;2329.60;;;;;;5012417;28;20462;-71
2021/04/02 10:11:42;;;;;;;24.17;17.15;;;384.60;2329.60;;;;;;5012622;28;20042;-69
2021/04/02 10:14:08;;;;;;;20.73;15.38;;;384.50;2329.60;;;;;;5012906;28;20033;-69
2021/04/02 10:16:34;;;;;;;23.58;15.90;;;384.60;2329.60;;;;;;5011274;28;20383;-69
2021/04/02 10:19:01;;;;;;;33.10;20.70;;;384.40;2329.60;;;;;;5012106;28;20026;-68
2021/04/02 10:21:27;;;;;;;30.35;19.35;;;384.40;2329.60;;;;;;5013003;28;20037;-69
2021/04/02 10:23:53;;;;;;;30.08;19.00;;;384.70;2329.60;;;;;;5012043;28;20044;-69
2021/04/02 10:26:19;;;;;;;19.85;15.23;;;409.60;2355.20;;;;;;5012493;28;20036;-69
2021/04/02 10:28:46;;;;;;;23.02;16.70;;;409.80;2355.20;;;;;;5012501;28;20030;-68
2021/04/02 10:31:13;;;;;;;18.05;13.88;;;410.50;2304.00;;;;;;5011988;28;20021;-68
2021/04/02 10:33:38;;;;;;;18.88;14.57;;;435.50;2227.20;;;;;;5012581;28;20026;-68
2021/04/02 10:36:06;;;;;;;24.30;17.08;;;461.00;2150.40;;;;;;5012386;28;20022;-67
2021/04/02 10:38:32;;;;;;;21.63;16.92;;;461.60;1996.80;;;;;;5011926;28;20041;-68
2021/04/02 10:40:58;;;;;;;20.60;16.60;;;486.80;1920.00;;;;;;5012297;28;20053;-68
2021/04/02 10:43:24;;;;;;;19.70;14.88;;;487.10;1843.20;;;;;;5012161;28;20877;-68
2021/04/02 10:45:50;;;;;;;18.40;13.25;;;512.00;1817.60;;;;;;5012077;28;20095;-68
2021/04/02 10:48:16;;;;;;;19.38;13.30;;;512.50;1766.40;;;;;;5011484;28;20030;-68
2021/04/02 10:50:44;;;;;;;19.85;14.40;;;512.50;1740.80;;;;;;5011872;28;20033;-68
2021/04/02 10:53:11;;;;;;;19.08;14.65;;;512.40;1740.80;;;;;;5012334;28;20401;-69
2021/04/02 10:55:37;;;;;;;17.60;14.27;;;487.10;1792.00;;;;;;5012193;28;20022;-68
2021/04/02 10:58:06;;;;;;;18.15;14.25;;;461.70;1868.80;;;;;;5011997;28;20030;-68
2021/04/02 11:00:33;;;;;;;22.75;15.60;;;486.50;1894.40;;;;;;5011379;28;20277;-68
2021/04/02 11:03:00;;;;;;;19.55;14.43;;;486.70;1868.80;;;;;;5012112;28;20026;-68
2021/04/02 11:05:26;;;;;;;21.08;16.02;;;486.60;1868.80;;;;;;5011797;28;20057;-68
2021/04/02 11:07:52;;;;;;;20.08;14.35;;;487.10;1843.20;;;;;;5012067;28;20032;-68
2021/04/02 11:10:18;;;;;;;20.92;14.55;;;512.10;1792.00;;;;;;5011589;28;20673;-70
2021/04/02 11:12:43;;;;;;;29.23;19.95;;;512.40;1766.40;;;;;;5011661;28;20054;-70
2021/04/02 11:15:13;;;;;;;31.45;20.23;;;538.00;1740.80;;;;;;5011578;28;20038;-70
2021/04/02 11:17:44;;;;;;;20.85;15.35;;;538.10;1766.40;;;;;;5011224;28;20483;-71
2021/04/02 11:20:12;;;;;;;25.95;18.55;;;537.80;1740.80;;;;;;5011253;28;20029;-71
2021/04/02 11:22:38;;;;;;;27.52;18.67;;;537.70;1715.20;;;;;;5011479;28;20044;-70
2021/04/02 11:25:06;;;;;;;18.08;14.23;;;537.70;1715.20;;;;;;5011938;28;20444;-69
2021/04/02 11:27:32;;;;;;;21.55;16.10;;;512.40;1766.40;;;;;;5011277;28;20076;-68
2021/04/02 11:29:59;;;;;;;19.92;14.38;;;512.60;1740.80;;;;;;5011124;28;20029;-68
2021/04/02 11:32:25;;;;;;;20.65;14.57;;;512.30;1740.80;;;;;;5010987;28;20091;-72
2021/04/02 11:34:50;;;;;;;20.35;15.68;;;512.50;1766.40;;;;;;4998581;28;20022;-71
2021/04/02 11:37:18;;;;;;;25.15;17.42;;;537.60;1715.20;;;;;;4993154;28;20022;-68
2021/04/02 11:39:44;;;;;;;25.73;19.75;;;512.90;1689.60;;;;;;4994115;28;20049;-68
2021/04/02 11:42:09;;;;;;;25.20;17.85;;;537.70;1715.20;;;;;;4992955;28;20481;-68
2021/04/02 11:44:35;;;;;;;27.77;19.63;;;537.80;1715.20;;;;;;4992887;28;20027;-68
2021/04/02 11:47:02;;;;;;;21.45;16.05;;;538.00;1715.20;;;;;;4994646;28;20030;-72
2021/04/02 11:49:27;;;;;;;22.17;16.23;;;537.70;1715.20;;;;;;5000113;28;20057;-72
2021/04/02 11:51:54;;;;;;;22.88;16.95;;;512.90;1689.60;;;;;;4996034;28;20438;-71
2021/04/02 11:54:20;;;;;;;23.27;16.23;;;512.80;1689.60;;;;;;4993655;28;20069;-67
2021/04/02 11:56:47;;;;;;;17.88;14.05;;;537.80;1689.60;;;;;;4998346;28;20100;-68
2021/04/02 11:59:13;;;;;;;16.95;12.57;;;537.80;1689.60;;;;;;5000908;28;20027;-68
2021/04/02 12:01:39;;;;;;;16.45;12.48;;;512.70;1664.00;;;;;;4995584;28;20109;-71
2021/04/02 12:04:06;;;;;;;17.15;11.60;;;537.60;1638.40;;;;;;5004310;28;20097;-71
2021/04/02 12:06:32;;;;;;;16.17;12.18;;;537.80;1612.80;;;;;;4999855;28;20014;-67